Hovedside
METAR-TAF:

METAR-TAF

Lufthavner :

Rørvik lufthavn. Ryum

Rørvik, Norge

breddegrad: 64-50N, lengdegrad: 011-09E, høyde over havet: 4 m

Gjeldene værobservasjon

Denne rapporten ble laget for 16 minutter siden, klokken 04:50 UTC
Vind 9 kt fra Øst
Temperatur 11°C
Luftfuktighet 47%
Trykk 1017 hPa
Sikt 10 km eller mer
ingen skyer under 1500 m og ingen bygeskyer

METAR: ENRM 250450Z 09009KT CAVOK 11/M00 Q1017

Tid: 07:06 (05:06 UTC)

Varsel

Denne rapporten ble laget for 15 timer og 6 minutter siden, klokken 14:00 UTC
Varsel gyldig fra 24. klokken 15 UTC til 24. klokken 20 UTC
Vind 10 kt fra Sør-sørøst
Sikt 10 km eller mer
ingen skyer under 1500 m og ingen bygeskyer

TAF: ENRM 241400Z 2415/2420 15010KT CAVOK

Værobservasjoner og værvarsel for over 4000 flyplasser (METAR- og TAF-rapporter).

Tilgjengelige stasjoner er representert av de røde og gule prikkene på kartet.

Hold musepekeren over prikken for å se navnet på stasjonen.

Klikk så for å se værobservasjoner og -varsler.

For å forandre kartet kan du klikke på den grønne knappen med svart kryss for å zoome inn, på den grønne knappen med strek for å zoome ut, eller på de grønne pilene for å se tilstøtende kart.


METAR-TAF: